עמוד ראשי
METAR-TAF:

METAR-TAF

שדות תעופה :

Space Coast Regional Airport

Titusville, פלורידה, ארצות הברית

קו רוחב: 28-31N, קו אורך: 080-48W, גובה: 11מטר

תצפית מזג אוויר נוכחית

הדו"ח נערך לפני 54דקות, בשעה 15:47 UTC
רוח 9קשר מכיוון מזרח/דרום-מזרח
טמפרטורת 32 צלסיוס
לחות 56%
לחץ 1019 hPa
ראות: 11.3קילומטר
עננים פזורים בגובה 2800רגל
עננים בינוניים בגובה 3300רגל

METAR: KTIX 171547Z 11009KT 7SM SCT028 BKN033 32/22 A3009

זמן: 12:41 (16:41 UTC)

תחזית

הדו"ח נערך לפני 57דקות, בשעה 15:44 UTC
תחזית בתוקף מ 17 ב 16 UTC עד 18 ב 12 UTC
רוח 10קשר מכיוון מזרח עם משבים עד 18קשר
ראות: 10קילומטר
עננים פזורים בגובה 3000רגל
עננים בינוניים בגובה 3500רגל
מ 17 ב 1800UTC
רוח 16קשר מכיוון מזרח עם משבים עד 25קשר
ראות: 10קילומטר
עננים פזורים בגובה 5000רגל
עננים בינוניים בגובה 30000רגל
מ 18 ב 0000UTC
רוח 12קשר מכיוון מזרח
ראות: 10קילומטר
עננים פזורים בגובה 3500רגל
עננים בינוניים בגובה 30000רגל

TAF: KTIX 171544Z 1716/1812 10010G18KT P6SM SCT030 BKN035 FM171800 09016G25KT P6SM SCT050 BKN300 FM180000 08012KT P6SM SCT035 BKN300

תצפיות ותחזיות מזג אוויר לגבי יותר מ- 4,000 שדות תעופה ברחבי העולם. דוחות METAR ו- TAF.

התחנות הזמינות מסומנות בנקודות צהובות ואדומות על גבי המפה.

העבר את העכבר לנקודה הצבעונית על מנת לראות את שם התחנה.

לאחר מכן, לחץ כדי לראות את תוכן ואת תחזיות מזג האוויר.

כדי לשנות את המפה: לחץ על הכפתורים הירוקים עם הפלוס השחור כדי להתקרב; על הכפתור הירוק עם המקף כדי להתרחק; או בחיצים הירוקים למפות סמוכות.


METAR-TAF: